Time;durP1;ratioP1;P1;durP2;ratioP2;P2;SDS_P1;SDS_P2;PMS_P1;PMS_P2;Temp;Humidity;BMP_temperature;BMP_pressure;BME280_temperature;BME280_humidity;BME280_pressure;Samples;Min_cycle;Max_cycle;Signal;HPM_P1;HPM_P2
2021/11/09 00:00:14;;;;;;;0.30;0.30;;;5.90;99.90;;;;;;5069137;28;20193;-76
2021/11/09 00:02:43;;;;;;;0.10;0.10;;;5.90;99.90;;;;;;5070471;28;20182;-77
2021/11/09 00:05:12;;;;;;;0.68;0.68;;;5.90;99.90;;;;;;5069181;28;20179;-77
2021/11/09 00:10:10;;;;;;;1.40;1.10;;;5.90;99.90;;;;;;5070374;28;20636;-76
2021/11/09 00:12:43;;;;;;;0.20;0.20;;;5.90;99.90;;;;;;5070389;28;20165;-76
2021/11/09 00:15:17;;;;;;;0.10;0.10;;;5.90;99.90;;;;;;5070202;28;20161;-77
2021/11/09 00:17:45;;;;;;;0.22;0.22;;;5.90;99.90;;;;;;5070163;28;20187;-76
2021/11/09 00:20:14;;;;;;;0.10;0.10;;;6.00;99.90;;;;;;5069932;28;20192;-77
2021/11/09 00:22:42;;;;;;;0.77;0.77;;;5.90;99.90;;;;;;5068540;28;20196;-77
2021/11/09 00:25:09;;;;;;;0.45;0.45;;;6.00;99.90;;;;;;5070123;28;20169;-77
2021/11/09 00:27:35;;;;;;;0.22;0.22;;;6.00;99.90;;;;;;5068759;28;20173;-77
2021/11/09 00:30:02;;;;;;;11.80;1.15;;;5.90;99.90;;;;;;5068660;28;20192;-77
2021/11/09 00:32:29;;;;;;;0.10;0.10;;;5.90;99.90;;;;;;5069883;28;20161;-77
2021/11/09 00:34:55;;;;;;;0.05;0.05;;;5.90;99.90;;;;;;5069860;28;20165;-77
2021/11/09 00:37:21;;;;;;;0.10;0.10;;;5.90;99.90;;;;;;5069826;28;20252;-76
2021/11/09 00:39:47;;;;;;;1.65;0.98;;;6.00;99.90;;;;;;5069697;28;20227;-76
2021/11/09 00:42:14;;;;;;;0.75;0.75;;;6.00;99.90;;;;;;5068507;28;20226;-76
2021/11/09 00:44:41;;;;;;;0.10;0.10;;;5.90;99.90;;;;;;5069678;28;20149;-76
2021/11/09 00:47:08;;;;;;;1.10;0.55;;;5.90;99.90;;;;;;5068406;28;20177;-78
2021/11/09 00:49:34;;;;;;;0.20;0.20;;;5.90;99.90;;;;;;5068165;28;20200;-76
2021/11/09 00:52:01;;;;;;;0.90;0.90;;;5.90;99.90;;;;;;5069518;28;20153;-76
2021/11/09 00:54:28;;;;;;;0.73;0.73;;;5.90;99.90;;;;;;5067973;28;20180;-76
2021/11/09 00:56:54;;;;;;;0.10;0.10;;;5.90;99.90;;;;;;5069350;28;20169;-76
2021/11/09 00:59:21;;;;;;;0.10;0.10;;;5.90;99.90;;;;;;5068110;28;20227;-76
2021/11/09 01:01:47;;;;;;;0.10;0.10;;;5.90;99.90;;;;;;5069421;28;20165;-76
2021/11/09 01:04:13;;;;;;;0.10;0.10;;;5.90;99.90;;;;;;5067935;28;20180;-76
2021/11/09 01:06:39;;;;;;;0.10;0.10;;;5.90;99.90;;;;;;5069262;28;20167;-75
2021/11/09 01:09:06;;;;;;;0.10;0.10;;;5.90;99.90;;;;;;5068061;28;20203;-76
2021/11/09 01:11:33;;;;;;;17.23;3.40;;;6.00;99.90;;;;;;5069366;28;20215;-76
2021/11/09 01:14:00;;;;;;;0.10;0.10;;;6.00;99.90;;;;;;5067853;28;20180;-76
2021/11/09 01:16:26;;;;;;;0.17;0.17;;;6.00;99.90;;;;;;5067859;28;20172;-76
2021/11/09 01:18:56;;;;;;;0.00;0.00;;;6.00;99.90;;;;;;5068921;28;20207;-76
2021/11/09 01:21:23;;;;;;;0.38;0.38;;;6.10;99.90;;;;;;5069120;28;20161;-76
2021/11/09 01:23:52;;;;;;;0.10;0.10;;;6.10;99.90;;;;;;5069100;28;20670;-76
2021/11/09 01:26:20;;;;;;;0.15;0.15;;;6.10;99.90;;;;;;5069059;28;20163;-76
2021/11/09 01:28:49;;;;;;;0.30;0.30;;;6.20;99.90;;;;;;5063928;28;20205;-77
2021/11/09 01:31:15;;;;;;;0.10;0.10;;;6.00;99.90;;;;;;5047762;28;20174;-77
2021/11/09 01:33:42;;;;;;;1.05;0.95;;;6.00;99.90;;;;;;5048200;28;20222;-77
2021/11/09 01:36:08;;;;;;;0.88;0.85;;;5.90;99.90;;;;;;5048993;28;20168;-77
2021/11/09 01:38:35;;;;;;;0.00;0.00;;;5.90;99.90;;;;;;5047513;28;20229;-76
2021/11/09 01:41:02;;;;;;;0.88;0.30;;;5.90;99.90;;;;;;5048932;28;20177;-76
2021/11/09 01:43:31;;;;;;;0.10;0.10;;;5.90;99.90;;;;;;5047634;28;20166;-77
2021/11/09 01:45:58;;;;;;;0.10;0.10;;;5.80;99.90;;;;;;5049013;28;20181;-77
2021/11/09 01:48:24;;;;;;;0.10;0.10;;;5.80;99.90;;;;;;5048888;28;20161;-77
2021/11/09 01:50:57;;;;;;;0.68;0.68;;;5.80;99.90;;;;;;5048905;28;20217;-75
2021/11/09 01:53:23;;;;;;;0.20;0.20;;;5.80;99.90;;;;;;5047628;28;20175;-76
2021/11/09 01:55:50;;;;;;;0.10;0.10;;;5.80;99.90;;;;;;5048716;28;20232;-78
2021/11/09 01:58:17;;;;;;;0.55;0.35;;;5.80;99.90;;;;;;5048801;28;20189;-78
2021/11/09 02:00:51;;;;;;;0.10;0.10;;;5.80;99.90;;;;;;5047598;28;20551;-78
2021/11/09 02:03:18;;;;;;;0.10;0.10;;;5.70;99.90;;;;;;5048795;28;20584;-78
2021/11/09 02:05:45;;;;;;;1.27;1.15;;;5.80;99.90;;;;;;5047524;28;20165;-78
2021/11/09 02:08:12;;;;;;;0.10;0.10;;;5.80;99.90;;;;;;5048673;28;20217;-78
2021/11/09 02:10:40;;;;;;;0.10;0.10;;;5.80;99.90;;;;;;5047401;28;20201;-78
2021/11/09 02:13:07;;;;;;;0.10;0.10;;;5.80;99.90;;;;;;5047536;28;20172;-76
2021/11/09 02:15:35;;;;;;;0.10;0.10;;;5.90;99.90;;;;;;5048713;28;20166;-76
2021/11/09 02:18:02;;;;;;;0.10;0.10;;;5.90;99.90;;;;;;5048687;28;20235;-77
2021/11/09 02:20:29;;;;;;;0.08;0.08;;;5.90;99.90;;;;;;5048666;28;20241;-76
2021/11/09 02:22:56;;;;;;;0.30;0.30;;;5.80;99.90;;;;;;5048671;28;20149;-77
2021/11/09 02:25:25;;;;;;;0.10;0.10;;;5.80;99.90;;;;;;5048654;28;20161;-78
2021/11/09 02:27:52;;;;;;;0.10;0.10;;;5.70;99.90;;;;;;5048549;28;20248;-78
2021/11/09 02:30:23;;;;;;;0.00;0.00;;;5.70;99.90;;;;;;5047228;28;20201;-78
2021/11/09 02:32:50;;;;;;;0.10;0.10;;;5.70;99.90;;;;;;5048565;28;20165;-77
2021/11/09 02:35:17;;;;;;;0.22;0.22;;;5.80;99.90;;;;;;5048635;28;20215;-78
2021/11/09 02:37:44;;;;;;;0.10;0.10;;;5.80;99.90;;;;;;5048404;28;20205;-78
2021/11/09 02:40:11;;;;;;;2.53;2.30;;;5.70;99.90;;;;;;5047074;28;20193;-77
2021/11/09 02:42:42;;;;;;;0.10;0.10;;;5.60;99.90;;;;;;5047200;28;20176;-77
2021/11/09 02:45:17;;;;;;;0.10;0.10;;;5.60;99.90;;;;;;5050758;28;20161;-77
2021/11/09 02:47:55;;;;;;;0.10;0.10;;;5.60;99.90;;;;;;5051867;28;20171;-77
2021/11/09 02:50:25;;;;;;;0.10;0.10;;;5.50;99.90;;;;;;5050458;28;20220;-77
2021/11/09 02:52:57;;;;;;;0.10;0.10;;;5.70;99.90;;;;;;5051725;28;20178;-77
2021/11/09 02:55:31;;;;;;;0.10;0.10;;;5.60;99.90;;;;;;5051649;28;20641;-77
2021/11/09 02:58:09;;;;;;;0.17;0.17;;;5.70;99.90;;;;;;5051587;28;20192;-78
2021/11/09 03:00:47;;;;;;;0.10;0.10;;;5.60;99.90;;;;;;5051572;28;20197;-77
2021/11/09 03:03:19;;;;;;;0.10;0.10;;;5.60;99.90;;;;;;5051539;28;20150;-76
2021/11/09 03:05:50;;;;;;;0.10;0.10;;;5.60;99.90;;;;;;5051527;28;20145;-77
2021/11/09 03:08:31;;;;;;;0.25;0.25;;;5.70;99.90;;;;;;5050173;28;20184;-77
2021/11/09 03:10:57;;;;;;;0.20;0.20;;;5.60;99.90;;;;;;5050154;28;20175;-77
2021/11/09 03:13:23;;;;;;;0.10;0.10;;;5.50;99.90;;;;;;5051462;28;20189;-77
2021/11/09 03:15:51;;;;;;;0.10;0.10;;;5.60;99.90;;;;;;5049988;28;20188;-77
2021/11/09 03:18:21;;;;;;;0.10;0.10;;;5.50;99.90;;;;;;5051191;28;20250;-77
2021/11/09 03:45:30;;;;;;;0.50;0.50;;;5.40;99.90;;;;;;5050864;28;20200;-77
2021/11/09 03:48:04;;;;;;;0.47;0.47;;;5.30;99.90;;;;;;5049479;28;20172;-77
2021/11/09 03:50:31;;;;;;;0.30;0.30;;;5.30;99.90;;;;;;5050613;28;20189;-77
2021/11/09 03:53:17;;;;;;;0.10;0.10;;;5.20;99.90;;;;;;5050564;28;20192;-77
2021/11/09 04:00:50;;;;;;;0.10;0.10;;;5.20;99.90;;;;;;5050564;28;20153;-77
2021/11/09 04:06:03;;;;;;;0.10;0.10;;;5.20;99.90;;;;;;5050484;28;20153;-78
2021/11/09 04:11:16;;;;;;;0.10;0.10;;;5.10;99.90;;;;;;5050488;28;20169;-77
2021/11/09 04:14:12;;;;;;;0.10;0.10;;;5.10;99.90;;;;;;5050206;28;20211;-76
2021/11/09 04:19:11;;;;;;;0.10;0.10;;;5.10;99.90;;;;;;5049924;28;20232;-77
2021/11/09 04:22:17;;;;;;;0.10;0.10;;;5.10;99.90;;;;;;5048946;28;20162;-77
2021/11/09 04:27:33;;;;;;;0.20;0.20;;;5.10;99.90;;;;;;5049936;28;20190;-76
2021/11/09 04:30:22;;;;;;;0.20;0.20;;;5.00;99.90;;;;;;5049893;28;20258;-77
2021/11/09 05:02:44;;;;;;;1.52;1.42;;;4.80;99.90;;;;;;5057007;28;20207;-78
2021/11/09 05:10:41;;;;;;;0.10;0.10;;;4.60;99.90;;;;;;5048954;28;20199;-77
2021/11/09 05:13:07;;;;;;;0.10;0.10;;;4.60;99.90;;;;;;5058750;28;20181;-78
2021/11/09 05:15:33;;;;;;;9.23;1.35;;;4.50;99.90;;;;;;5067748;28;20187;-77
2021/11/09 05:17:59;;;;;;;0.10;0.10;;;4.50;99.90;;;;;;5065946;28;20223;-77
2021/11/09 05:20:27;;;;;;;0.60;0.55;;;4.40;99.90;;;;;;5067445;28;20235;-76
2021/11/09 05:22:53;;;;;;;1.67;1.35;;;4.40;99.90;;;;;;5068884;28;20165;-77
2021/11/09 05:25:20;;;;;;;0.10;0.10;;;4.40;99.90;;;;;;5067589;28;20195;-76
2021/11/09 05:27:46;;;;;;;2.03;1.85;;;4.30;99.90;;;;;;5068569;28;20168;-77
2021/11/09 05:30:15;;;;;;;0.20;0.20;;;4.20;99.90;;;;;;5067164;28;20680;-76
2021/11/09 05:32:43;;;;;;;0.10;0.10;;;4.10;99.90;;;;;;5068699;28;20183;-77
2021/11/09 05:35:10;;;;;;;0.10;0.10;;;4.00;99.90;;;;;;5067474;28;20271;-78
2021/11/09 05:37:43;;;;;;;0.10;0.10;;;4.00;99.90;;;;;;5069161;28;20192;-77
2021/11/09 05:40:11;;;;;;;0.10;0.10;;;3.90;99.90;;;;;;5068497;28;20188;-76
2021/11/09 05:42:37;;;;;;;0.10;0.10;;;3.90;99.90;;;;;;5068540;28;20161;-77
2021/11/09 05:45:05;;;;;;;0.10;0.10;;;3.90;99.90;;;;;;5068846;28;20648;-76
2021/11/09 05:47:31;;;;;;;0.10;0.10;;;3.80;99.90;;;;;;5067527;28;20180;-77
2021/11/09 05:49:57;;;;;;;0.10;0.10;;;3.80;99.90;;;;;;5067489;28;20223;-77
2021/11/09 05:52:23;;;;;;;0.10;0.10;;;3.80;99.90;;;;;;5048008;28;20185;-76
2021/11/09 05:54:50;;;;;;;0.50;0.50;;;3.80;99.90;;;;;;5046321;28;20289;-76
2021/11/09 05:57:16;;;;;;;4.03;1.95;;;3.80;99.90;;;;;;5048326;28;20189;-77
2021/11/09 05:59:43;;;;;;;0.10;0.10;;;3.70;99.90;;;;;;5047831;28;20150;-77
2021/11/09 06:02:09;;;;;;;0.13;0.13;;;3.70;99.90;;;;;;5045842;28;20173;-77
2021/11/09 06:04:34;;;;;;;0.10;0.10;;;3.60;99.90;;;;;;5046526;28;20201;-78
2021/11/09 06:07:00;;;;;;;0.10;0.10;;;3.70;99.90;;;;;;5046987;28;20189;-77
2021/11/09 06:09:26;;;;;;;0.10;0.10;;;3.60;99.90;;;;;;5048419;28;20157;-77
2021/11/09 06:11:52;;;;;;;0.10;0.10;;;3.60;99.90;;;;;;5048040;28;20158;-76
2021/11/09 06:14:18;;;;;;;0.20;0.20;;;3.70;99.90;;;;;;5048415;28;20361;-76
2021/11/09 06:16:44;;;;;;;0.00;0.00;;;3.70;99.90;;;;;;5048611;28;20161;-76
2021/11/09 06:19:10;;;;;;;0.35;0.35;;;3.80;99.90;;;;;;5049237;28;20204;-76
2021/11/09 06:21:36;;;;;;;0.20;0.20;;;3.80;99.90;;;;;;5050558;28;20268;-77
2021/11/09 06:24:02;;;;;;;0.35;0.35;;;3.80;99.90;;;;;;5050627;28;20193;-77
2021/11/09 06:26:28;;;;;;;0.10;0.10;;;3.80;99.90;;;;;;5050818;28;20249;-77
2021/11/09 06:28:59;;;;;;;0.10;0.10;;;3.80;99.90;;;;;;5050328;28;20174;-77
2021/11/09 06:31:29;;;;;;;0.10;0.10;;;3.90;99.90;;;;;;5051870;28;20157;-77
2021/11/09 06:33:55;;;;;;;0.10;0.10;;;3.90;99.90;;;;;;5051882;28;20184;-77
2021/11/09 06:36:21;;;;;;;0.10;0.10;;;3.90;99.90;;;;;;5050428;28;20180;-77
2021/11/09 06:38:47;;;;;;;0.20;0.20;;;3.90;99.90;;;;;;5051297;28;20212;-77
2021/11/09 06:41:13;;;;;;;98.65;3.40;;;4.00;99.90;;;;;;5052033;28;20169;-77
2021/11/09 06:43:39;;;;;;;0.57;0.57;;;4.00;99.90;;;;;;5050479;28;20201;-77
2021/11/09 06:46:06;;;;;;;0.10;0.10;;;4.20;99.90;;;;;;5050449;28;20238;-77
2021/11/09 06:48:32;;;;;;;0.10;0.10;;;4.30;99.90;;;;;;5051661;28;20154;-77
2021/11/09 06:50:58;;;;;;;0.30;0.30;;;4.30;99.90;;;;;;5050387;28;20200;-77
2021/11/09 06:53:27;;;;;;;0.10;0.10;;;4.30;99.90;;;;;;5050153;28;20197;-77
2021/11/09 06:55:53;;;;;;;0.10;0.10;;;4.30;99.90;;;;;;5051334;28;20237;-77
2021/11/09 06:58:19;;;;;;;0.17;0.17;;;4.30;99.90;;;;;;5050062;28;20194;-77
2021/11/09 07:00:45;;;;;;;0.20;0.20;;;4.30;99.90;;;;;;5050249;28;20162;-77
2021/11/09 07:03:11;;;;;;;0.93;0.63;;;4.30;99.90;;;;;;5049211;28;20227;-77
2021/11/09 07:05:37;;;;;;;0.10;0.10;;;4.20;99.90;;;;;;5051203;28;20162;-77
2021/11/09 07:08:03;;;;;;;0.10;0.10;;;4.30;99.90;;;;;;5050034;28;20237;-77
2021/11/09 07:10:29;;;;;;;0.10;0.10;;;4.30;99.90;;;;;;5051376;28;20164;-77
2021/11/09 07:12:55;;;;;;;0.10;0.10;;;4.40;99.90;;;;;;5049863;28;20225;-77
2021/11/09 07:15:21;;;;;;;0.10;0.10;;;4.50;99.90;;;;;;5051401;28;20162;-78
2021/11/09 07:17:48;;;;;;;0.10;0.10;;;4.50;99.90;;;;;;5049878;28;20332;-77
2021/11/09 07:20:20;;;;;;;0.10;0.10;;;4.70;99.90;;;;;;5049591;28;20173;-77
2021/11/09 07:22:48;;;;;;;3.70;2.28;;;4.70;99.90;;;;;;5049836;28;20197;-77
2021/11/09 07:25:15;;;;;;;0.10;0.10;;;4.80;99.90;;;;;;5049889;28;20237;-76
2021/11/09 07:27:42;;;;;;;0.10;0.10;;;5.00;99.90;;;;;;5050857;28;20172;-77
2021/11/09 07:30:11;;;;;;;0.47;0.47;;;5.10;99.90;;;;;;5048985;28;20176;-77
2021/11/09 07:32:38;;;;;;;0.10;0.10;;;5.20;99.90;;;;;;5050349;28;20200;-77
2021/11/09 07:35:06;;;;;;;2.72;1.40;;;5.30;99.90;;;;;;5050761;28;20157;-76
2021/11/09 07:37:32;;;;;;;0.10;0.10;;;5.40;99.90;;;;;;5049630;28;20239;-77
2021/11/09 07:39:58;;;;;;;0.10;0.10;;;5.40;99.90;;;;;;5049349;28;20177;-76
2021/11/09 07:42:24;;;;;;;0.10;0.10;;;5.60;99.90;;;;;;5050878;28;20161;-76
2021/11/09 07:44:52;;;;;;;0.10;0.10;;;5.70;99.90;;;;;;5050722;28;20157;-77
2021/11/09 07:47:19;;;;;;;0.10;0.10;;;5.90;99.90;;;;;;5049483;28;20180;-77
2021/11/09 07:49:46;;;;;;;0.10;0.10;;;6.10;99.90;;;;;;5050761;28;20158;-77
2021/11/09 07:52:12;;;;;;;0.45;0.45;;;6.40;99.90;;;;;;5050559;28;20670;-78
2021/11/09 07:54:44;;;;;;;0.75;0.75;;;6.60;99.90;;;;;;5050372;28;20684;-78
2021/11/09 07:57:15;;;;;;;2.95;0.90;;;6.60;99.90;;;;;;5050570;28;20233;-78
2021/11/09 07:59:57;;;;;;;0.00;0.00;;;6.70;99.90;;;;;;5050469;28;20162;-77
2021/11/09 08:05:11;;;;;;;1.13;0.40;;;7.80;99.90;;;;;;5050329;28;20162;-78
2021/11/09 08:07:49;;;;;;;0.68;0.68;;;8.70;99.90;;;;;;5049949;28;20197;-78
2021/11/09 08:10:15;;;;;;;0.10;0.10;;;9.40;99.90;;;;;;5048672;28;20169;-80
2021/11/09 08:12:40;;;;;;;1.17;0.63;;;9.90;99.90;;;;;;5050062;28;20223;-81
2021/11/09 08:15:07;;;;;;;0.35;0.35;;;10.50;99.90;;;;;;5050162;28;20162;-81
2021/11/09 08:17:32;;;;;;;0.25;0.25;;;10.90;99.90;;;;;;5049985;28;20193;-82
2021/11/09 08:19:58;;;;;;;1.45;1.27;;;11.60;99.90;;;;;;5050219;28;20259;-81
2021/11/09 08:22:24;;;;;;;0.15;0.15;;;12.30;99.90;;;;;;5048660;28;20233;-81
2021/11/09 08:24:50;;;;;;;4.68;0.73;;;12.00;99.90;;;;;;5049954;28;20162;-79
2021/11/09 08:27:16;;;;;;;0.00;0.00;;;12.00;99.90;;;;;;5055204;28;20180;-78
2021/11/09 08:29:49;;;;;;;11.18;0.90;;;12.00;99.90;;;;;;5085132;28;20710;-80
2021/11/09 08:32:19;;;;;;;0.20;0.20;;;12.20;99.90;;;;;;5074570;28;20172;-81
2021/11/09 08:34:45;;;;;;;0.10;0.10;;;12.40;99.90;;;;;;5078856;28;20184;-79
2021/11/09 08:37:11;;;;;;;0.80;0.52;;;12.60;99.90;;;;;;5083505;28;20560;-81
2021/11/09 08:39:40;;;;;;;0.88;0.22;;;12.70;99.90;;;;;;5089469;28;20220;-80
2021/11/09 08:45:07;;;;;;;10.30;0.85;;;14.80;99.90;;;;;;5089723;28;20223;-80
2021/11/09 08:47:25;;;;;;;0.68;0.68;;;15.90;99.90;;;;;;5089286;28;20194;-80
2021/11/09 08:49:52;;;;;;;0.08;0.08;;;15.80;99.60;;;;;;5089604;28;20182;-80
2021/11/09 08:52:22;;;;;;;0.63;0.40;;;16.00;99.90;;;;;;5089145;28;20215;-80
2021/11/09 08:55:37;;;;;;;0.00;0.00;;;16.60;99.90;;;;;;5089243;28;20714;-81
2021/11/09 09:05:52;;;;;;;0.63;0.57;;;15.90;97.70;;;;;;5089536;28;20304;-80
2021/11/09 09:08:19;;;;;;;0.10;0.10;;;16.20;99.70;;;;;;5089277;28;20160;-79
2021/11/09 09:10:45;;;;;;;0.65;0.43;;;16.80;97.40;;;;;;5089262;28;20220;-80
2021/11/09 09:13:12;;;;;;;0.10;0.10;;;16.90;99.70;;;;;;5089175;28;20188;-75
2021/11/09 09:15:38;;;;;;;0.10;0.10;;;17.10;98.70;;;;;;5087835;28;20640;-75
2021/11/09 09:18:05;;;;;;;0.08;0.08;;;17.60;96.20;;;;;;5089025;28;20199;-75
2021/11/09 09:20:43;;;;;;;0.10;0.10;;;18.00;99.90;;;;;;5087839;28;20163;-76
2021/11/09 09:23:13;;;;;;;0.30;0.30;;;17.50;97.60;;;;;;5087447;28;20195;-75
2021/11/09 09:52:41;;;;;;;0.55;0.55;;;18.50;97.70;;;;;;5068519;28;20267;-75
2021/11/09 09:55:17;;;;;;;0.45;0.45;;;19.30;99.40;;;;;;5071256;28;20226;-75
2021/11/09 09:57:44;;;;;;;0.52;0.52;;;19.80;93.90;;;;;;5072510;28;20195;-76
2021/11/09 10:00:11;;;;;;;0.22;0.22;;;18.20;95.70;;;;;;5071189;28;20217;-75
2021/11/09 10:02:53;;;;;;;0.65;0.55;;;17.90;97.30;;;;;;5072538;28;20195;-73
2021/11/09 10:05:21;;;;;;;0.00;0.00;;;17.40;96.10;;;;;;5072683;28;20163;-75
2021/11/09 10:07:52;;;;;;;0.13;0.13;;;18.10;95.60;;;;;;5068860;28;20225;-79
2021/11/09 10:10:25;;;;;;;0.15;0.15;;;15.50;98.10;;;;;;5070852;28;20214;-77
2021/11/09 10:12:59;;;;;;;0.05;0.05;;;16.30;99.90;;;;;;5072197;28;20219;-75
2021/11/09 10:15:27;;;;;;;0.10;0.10;;;17.90;96.40;;;;;;5071092;28;20168;-77
2021/11/09 10:17:57;;;;;;;0.98;0.40;;;17.90;96.20;;;;;;5071678;28;20214;-77
2021/11/09 10:20:28;;;;;;;0.08;0.08;;;16.80;98.70;;;;;;5071024;28;20164;-78
2021/11/09 10:22:57;;;;;;;0.13;0.13;;;16.20;97.30;;;;;;5070596;28;20171;-78
2021/11/09 10:25:25;;;;;;;0.05;0.05;;;15.60;98.60;;;;;;5072221;28;20157;-78
2021/11/09 10:27:57;;;;;;;0.10;0.10;;;14.50;97.10;;;;;;5070612;28;20319;-77
2021/11/09 10:30:25;;;;;;;0.28;0.17;;;14.40;99.90;;;;;;5071987;28;20165;-77
2021/11/09 10:32:52;;;;;;;0.20;0.20;;;16.40;98.70;;;;;;5071741;28;20165;-78
2021/11/09 10:35:19;;;;;;;0.15;0.15;;;17.20;97.60;;;;;;5071854;28;20153;-75
2021/11/09 10:37:51;;;;;;;0.20;0.20;;;18.80;98.30;;;;;;5071345;28;20202;-77
2021/11/09 10:40:22;;;;;;;0.10;0.10;;;19.70;95.60;;;;;;5071927;28;20180;-76
2021/11/09 10:42:54;;;;;;;0.00;0.00;;;19.00;94.50;;;;;;5071767;28;20168;-77
2021/11/09 10:45:25;;;;;;;0.63;0.38;;;15.90;96.60;;;;;;5071639;28;20183;-77
2021/11/09 10:47:54;;;;;;;2.08;1.75;;;15.60;98.10;;;;;;5071419;28;20235;-77
2021/11/09 10:50:26;;;;;;;0.75;0.75;;;15.70;98.20;;;;;;5071342;28;20192;-76
2021/11/09 10:52:59;;;;;;;0.20;0.20;;;15.20;98.00;;;;;;5071603;28;20206;-77
2021/11/09 10:58:22;;;;;;;0.05;0.05;;;14.50;98.00;;;;;;5071703;28;20200;-78
2021/11/09 11:00:57;;;;;;;0.10;0.10;;;15.60;99.90;;;;;;5070994;28;20197;-78
2021/11/09 11:06:33;;;;;;;0.00;0.00;;;14.00;98.80;;;;;;5071218;28;20665;-78
2021/11/09 11:09:10;;;;;;;0.38;0.38;;;13.30;99.90;;;;;;5071179;28;20668;-80
2021/11/09 11:11:43;;;;;;;0.08;0.08;;;14.30;99.90;;;;;;5070134;28;20209;-80
2021/11/09 11:14:17;;;;;;;0.00;0.00;;;15.00;99.90;;;;;;5070899;28;20157;-81
2021/11/09 11:16:45;;;;;;;0.00;0.00;;;16.60;98.60;;;;;;5069977;28;20196;-79
2021/11/09 11:19:19;;;;;;;1.27;0.70;;;16.30;98.10;;;;;;5069964;28;20250;-79
2021/11/09 11:21:46;;;;;;;0.10;0.10;;;14.70;99.00;;;;;;5069616;28;20285;-80
2021/11/09 11:24:14;;;;;;;1.00;1.00;;;14.10;99.90;;;;;;5070287;28;20226;-79
2021/11/09 11:26:43;;;;;;;0.10;0.10;;;14.50;98.80;;;;;;5072222;28;20307;-78
2021/11/09 11:29:09;;;;;;;0.10;0.10;;;13.90;99.90;;;;;;5072114;28;20184;-78
2021/11/09 11:31:36;;;;;;;0.00;0.00;;;14.00;99.90;;;;;;5071415;28;20180;-78
2021/11/09 11:34:02;;;;;;;0.20;0.20;;;13.40;99.90;;;;;;5070164;28;20169;-78
2021/11/09 11:36:29;;;;;;;0.10;0.10;;;13.60;99.90;;;;;;5070662;28;20235;-79
2021/11/09 11:39:00;;;;;;;1.10;0.70;;;14.30;99.90;;;;;;5070388;28;20197;-78
2021/11/09 11:41:32;;;;;;;0.40;0.40;;;15.30;99.80;;;;;;5071458;28;20153;-77
2021/11/09 11:44:00;;;;;;;0.20;0.20;;;14.70;99.00;;;;;;5071059;28;20160;-77
2021/11/09 11:46:32;;;;;;;2.90;1.02;;;14.40;99.90;;;;;;5069306;28;20197;-77
2021/11/09 11:49:16;;;;;;;0.10;0.10;;;15.30;98.70;;;;;;5069136;28;20180;-77
2021/11/09 11:51:45;;;;;;;0.00;0.00;;;14.60;99.30;;;;;;5070113;28;20163;-76
2021/11/09 11:54:15;;;;;;;0.00;0.00;;;14.00;99.90;;;;;;5068942;28;20171;-77
2021/11/09 11:56:50;;;;;;;0.10;0.10;;;13.70;99.90;;;;;;5068564;28;20723;-77
2021/11/09 11:59:22;;;;;;;0.13;0.13;;;13.40;99.90;;;;;;5070060;28;20187;-77
2021/11/09 12:01:56;;;;;;;8.75;1.08;;;14.40;99.90;;;;;;5070321;28;20172;-77
2021/11/09 12:04:54;;;;;;;0.00;0.00;;;14.60;99.90;;;;;;5070290;28;20153;-76
2021/11/09 12:07:42;;;;;;;0.00;0.00;;;13.60;99.90;;;;;;5069938;28;20164;-77
2021/11/09 12:10:09;;;;;;;0.40;0.40;;;13.30;99.90;;;;;;5068676;28;20637;-76
2021/11/09 12:12:35;;;;;;;0.30;0.30;;;12.80;99.90;;;;;;5069829;28;20149;-77
2021/11/09 12:15:05;;;;;;;0.50;0.50;;;12.30;99.90;;;;;;5069775;28;20728;-77
2021/11/09 12:17:43;;;;;;;0.00;0.00;;;11.90;99.90;;;;;;5069210;28;20239;-77
2021/11/09 12:20:17;;;;;;;0.20;0.20;;;11.60;99.90;;;;;;5068508;28;20196;-76
2021/11/09 12:22:45;;;;;;;0.05;0.05;;;11.50;99.90;;;;;;5069936;28;20191;-77
2021/11/09 12:25:32;;;;;;;0.10;0.10;;;11.20;99.90;;;;;;5070031;28;20532;-77
2021/11/09 12:28:01;;;;;;;0.10;0.10;;;11.20;99.90;;;;;;5064585;28;20195;-77
2021/11/09 12:30:38;;;;;;;0.10;0.10;;;10.80;99.90;;;;;;5069766;28;20164;-76
2021/11/09 12:33:14;;;;;;;0.20;0.20;;;10.50;99.90;;;;;;5069679;28;20165;-76
2021/11/09 12:35:43;;;;;;;0.00;0.00;;;10.50;99.90;;;;;;5068361;28;20165;-76
2021/11/09 12:38:15;;;;;;;0.10;0.10;;;10.50;99.90;;;;;;5069403;28;20200;-76
2021/11/09 12:40:47;;;;;;;0.00;0.00;;;10.50;99.90;;;;;;5069275;28;20153;-77
2021/11/09 12:43:15;;;;;;;1.65;0.80;;;10.60;99.90;;;;;;5068093;28;20168;-77
2021/11/09 12:46:10;;;;;;;0.10;0.10;;;10.70;99.90;;;;;;5069164;28;20184;-77
2021/11/09 12:48:54;;;;;;;0.20;0.20;;;10.80;99.90;;;;;;5069389;28;20188;-77
2021/11/09 12:51:26;;;;;;;0.00;0.00;;;11.00;99.90;;;;;;5066364;28;20161;-77
2021/11/09 12:53:55;;;;;;;0.32;0.32;;;11.20;99.90;;;;;;5065810;28;20180;-77
2021/11/09 12:56:33;;;;;;;0.10;0.10;;;11.20;99.90;;;;;;5065396;28;20235;-77
2021/11/09 12:59:04;;;;;;;3.53;1.27;;;11.20;99.90;;;;;;5066045;28;20244;-77
2021/11/09 13:01:42;;;;;;;0.10;0.10;;;11.20;99.90;;;;;;5062217;28;20200;-78
2021/11/09 13:09:53;;;;;;;0.10;0.10;;;11.40;99.90;;;;;;5055612;28;20172;-77
2021/11/09 13:12:21;;;;;;;0.10;0.10;;;11.20;99.90;;;;;;5058056;28;20177;-77
2021/11/09 13:15:01;;;;;;;0.00;0.00;;;10.80;99.90;;;;;;5068709;28;20160;-77
2021/11/09 13:17:37;;;;;;;0.10;0.10;;;10.80;99.90;;;;;;5068944;28;20184;-77
2021/11/09 13:20:48;;;;;;;0.10;0.10;;;10.70;99.90;;;;;;5067066;28;20160;-76
2021/11/09 13:23:27;;;;;;;0.25;0.25;;;10.60;99.90;;;;;;5067511;28;20175;-77
2021/11/09 13:25:55;;;;;;;0.10;0.10;;;10.60;99.90;;;;;;5067211;28;20160;-76
2021/11/09 13:28:36;;;;;;;0.75;0.75;;;10.60;99.90;;;;;;5066665;28;20165;-77
2021/11/09 13:31:10;;;;;;;0.10;0.10;;;10.70;99.90;;;;;;5066742;28;20192;-77
2021/11/09 13:33:39;;;;;;;0.75;0.75;;;10.70;99.90;;;;;;5068680;28;20157;-77
2021/11/09 13:36:06;;;;;;;0.10;0.10;;;10.60;99.90;;;;;;5068881;28;20160;-77
2021/11/09 13:38:43;;;;;;;0.00;0.00;;;10.60;99.90;;;;;;5067392;28;20199;-77
2021/11/09 13:41:29;;;;;;;2.25;1.52;;;10.70;99.90;;;;;;5068536;28;20184;-76
2021/11/09 13:44:07;;;;;;;0.20;0.20;;;10.60;99.90;;;;;;5068674;28;20153;-77
2021/11/09 13:46:37;;;;;;;0.10;0.10;;;10.50;99.90;;;;;;5068727;28;20212;-77
2021/11/09 13:49:07;;;;;;;0.20;0.20;;;10.30;99.90;;;;;;5066538;28;20164;-76
2021/11/09 13:51:43;;;;;;;0.10;0.10;;;10.20;99.90;;;;;;5067321;28;20200;-77
2021/11/09 13:54:21;;;;;;;0.10;0.10;;;10.20;99.90;;;;;;5068532;28;20224;-76
2021/11/09 13:56:50;;;;;;;0.10;0.10;;;10.10;99.90;;;;;;5066999;28;20232;-77
2021/11/09 13:59:26;;;;;;;1.15;1.10;;;10.00;99.90;;;;;;5068180;28;20188;-76
2021/11/09 14:12:54;;;;;;;0.10;0.10;;;10.00;99.90;;;;;;5068305;28;20160;-77
2021/11/09 14:18:16;;;;;;;0.10;0.10;;;10.00;99.90;;;;;;5068074;28;20218;-77
2021/11/09 14:20:54;;;;;;;0.00;0.00;;;10.00;99.90;;;;;;5066134;28;20196;-77
2021/11/09 14:23:40;;;;;;;0.10;0.10;;;9.90;99.90;;;;;;5068192;28;20160;-77
2021/11/09 14:26:22;;;;;;;0.10;0.10;;;9.90;99.90;;;;;;5066779;28;20173;-77
2021/11/09 14:28:50;;;;;;;0.10;0.10;;;9.80;99.90;;;;;;5067757;28;20164;-77
2021/11/09 14:31:31;;;;;;;0.10;0.10;;;9.80;99.90;;;;;;5067906;28;20197;-77
2021/11/09 14:34:15;;;;;;;0.10;0.10;;;9.80;99.90;;;;;;5064565;28;20204;-77
2021/11/09 14:36:43;;;;;;;0.10;0.10;;;9.80;99.90;;;;;;5051693;28;20172;-77
2021/11/09 14:39:14;;;;;;;0.40;0.40;;;9.80;99.90;;;;;;5047095;28;20255;-77
2021/11/09 14:42:13;;;;;;;0.10;0.10;;;9.80;99.90;;;;;;5050286;28;20176;-77
2021/11/09 14:47:47;;;;;;;0.00;0.00;;;9.70;99.90;;;;;;5059091;28;20245;-77
2021/11/09 14:50:26;;;;;;;0.20;0.20;;;9.60;99.90;;;;;;5050376;28;20197;-77
2021/11/09 14:53:21;;;;;;;0.20;0.20;;;9.50;99.90;;;;;;5050095;28;20169;-77
2021/11/09 14:55:58;;;;;;;0.15;0.15;;;9.40;99.90;;;;;;5049847;28;20220;-77
2021/11/09 14:58:24;;;;;;;0.10;0.10;;;9.30;99.90;;;;;;5051156;28;20184;-77
2021/11/09 15:00:51;;;;;;;3.13;2.50;;;9.20;99.90;;;;;;5069896;28;20211;-77
2021/11/09 15:03:16;;;;;;;0.95;0.95;;;9.10;99.90;;;;;;5070483;28;20196;-77
2021/11/09 15:05:43;;;;;;;0.10;0.10;;;9.10;99.90;;;;;;5071499;28;20145;-77
2021/11/09 15:13:51;;;;;;;0.10;0.10;;;8.90;99.90;;;;;;5071251;28;20613;-77
2021/11/09 15:27:26;;;;;;;0.10;0.10;;;8.30;99.90;;;;;;5051119;28;20156;-77
2021/11/09 15:30:03;;;;;;;0.10;0.10;;;8.20;99.90;;;;;;5050886;28;20216;-77
2021/11/09 15:32:32;;;;;;;0.10;0.10;;;8.10;99.90;;;;;;5049555;28;20192;-77
2021/11/09 15:35:18;;;;;;;1.10;1.00;;;8.10;99.90;;;;;;5050781;28;20157;-77
2021/11/09 15:37:50;;;;;;;0.73;0.73;;;8.00;99.90;;;;;;5050947;28;20181;-78
2021/11/09 15:40:20;;;;;;;0.15;0.15;;;8.00;99.90;;;;;;5049221;28;20212;-77
2021/11/09 15:42:46;;;;;;;0.20;0.20;;;7.80;99.90;;;;;;5050656;28;20232;-77
2021/11/09 15:45:13;;;;;;;0.15;0.15;;;7.80;99.90;;;;;;5068485;28;20180;-77
2021/11/09 15:47:39;;;;;;;0.75;0.75;;;7.70;99.90;;;;;;5070543;28;20590;-77
2021/11/09 15:50:07;;;;;;;0.10;0.10;;;7.70;99.90;;;;;;5070576;28;20192;-77
2021/11/09 15:52:34;;;;;;;0.10;0.10;;;7.70;99.90;;;;;;5069697;28;20168;-77